sensor_id;sensor_type;location;lat;lon;timestamp;pressure;altitude;pressure_sealevel;temperature;humidity
9764;BME280;4921;43.214;27.936;2022-10-31T00:01:24;101281.06;;;16.74;100.00
9764;BME280;4921;43.214;27.936;2022-10-31T00:03:52;101293.50;;;16.73;100.00
9764;BME280;4921;43.214;27.936;2022-10-31T00:06:20;101296.47;;;16.70;100.00
9764;BME280;4921;43.214;27.936;2022-10-31T00:08:52;101295.63;;;16.70;100.00
9764;BME280;4921;43.214;27.936;2022-10-31T00:11:19;101297.72;;;16.66;100.00
9764;BME280;4921;43.214;27.936;2022-10-31T00:13:46;101286.69;;;16.61;100.00
9764;BME280;4921;43.214;27.936;2022-10-31T00:16:14;101291.03;;;16.62;100.00
9764;BME280;4921;43.214;27.936;2022-10-31T00:18:41;101300.22;;;16.68;100.00
9764;BME280;4921;43.214;27.936;2022-10-31T00:21:08;101291.84;;;16.72;100.00
9764;BME280;4921;43.214;27.936;2022-10-31T00:23:35;101288.91;;;16.75;100.00
9764;BME280;4921;43.214;27.936;2022-10-31T00:26:04;101286.25;;;16.75;100.00
9764;BME280;4921;43.214;27.936;2022-10-31T00:28:32;101281.31;;;16.81;100.00
9764;BME280;4921;43.214;27.936;2022-10-31T00:31:00;101286.63;;;16.81;100.00
9764;BME280;4921;43.214;27.936;2022-10-31T00:33:27;101288.31;;;16.82;100.00
9764;BME280;4921;43.214;27.936;2022-10-31T00:35:55;101286.47;;;16.82;100.00
9764;BME280;4921;43.214;27.936;2022-10-31T00:38:22;101279.22;;;16.84;100.00
9764;BME280;4921;43.214;27.936;2022-10-31T00:40:49;101282.31;;;16.80;100.00
9764;BME280;4921;43.214;27.936;2022-10-31T00:43:18;101284.53;;;16.84;100.00
9764;BME280;4921;43.214;27.936;2022-10-31T00:45:45;101283.38;;;16.87;100.00
9764;BME280;4921;43.214;27.936;2022-10-31T00:48:11;101279.91;;;16.86;100.00
9764;BME280;4921;43.214;27.936;2022-10-31T00:50:38;101281.28;;;16.90;100.00
9764;BME280;4921;43.214;27.936;2022-10-31T00:53:06;101278.75;;;16.89;100.00
9764;BME280;4921;43.214;27.936;2022-10-31T00:55:33;101284.78;;;16.91;100.00
9764;BME280;4921;43.214;27.936;2022-10-31T00:58:00;101282.81;;;16.93;100.00
9764;BME280;4921;43.214;27.936;2022-10-31T01:00:28;101283.34;;;16.96;100.00
9764;BME280;4921;43.214;27.936;2022-10-31T01:02:55;101283.34;;;16.96;100.00
9764;BME280;4921;43.214;27.936;2022-10-31T01:05:22;101283.88;;;17.00;100.00
9764;BME280;4921;43.214;27.936;2022-10-31T01:07:49;101286.53;;;17.00;100.00
9764;BME280;4921;43.214;27.936;2022-10-31T01:10:16;101277.88;;;16.98;100.00
9764;BME280;4921;43.214;27.936;2022-10-31T01:12:44;101288.22;;;17.01;100.00
9764;BME280;4921;43.214;27.936;2022-10-31T01:15:13;101284.44;;;17.03;100.00
9764;BME280;4921;43.214;27.936;2022-10-31T01:17:41;101279.25;;;17.02;100.00
9764;BME280;4921;43.214;27.936;2022-10-31T01:20:10;101282.59;;;17.04;100.00
9764;BME280;4921;43.214;27.936;2022-10-31T01:22:37;101277.28;;;17.04;100.00
9764;BME280;4921;43.214;27.936;2022-10-31T01:25:05;101278.28;;;17.03;100.00
9764;BME280;4921;43.214;27.936;2022-10-31T01:27:32;101277.44;;;17.02;100.00
9764;BME280;4921;43.214;27.936;2022-10-31T01:29:59;101281.63;;;17.05;100.00
9764;BME280;4921;43.214;27.936;2022-10-31T01:32:27;101276.84;;;17.08;100.00
9764;BME280;4921;43.214;27.936;2022-10-31T01:34:55;101275.03;;;17.09;100.00
9764;BME280;4921;43.214;27.936;2022-10-31T01:37:22;101269.88;;;17.07;100.00
9764;BME280;4921;43.214;27.936;2022-10-31T01:39:49;101274.19;;;17.08;100.00
9764;BME280;4921;43.214;27.936;2022-10-31T01:42:19;101288.63;;;17.06;100.00
9764;BME280;4921;43.214;27.936;2022-10-31T01:44:55;101280.50;;;17.07;100.00
9764;BME280;4921;43.214;27.936;2022-10-31T01:47:33;101278.97;;;17.05;100.00
9764;BME280;4921;43.214;27.936;2022-10-31T01:50:09;101279.94;;;17.04;100.00
9764;BME280;4921;43.214;27.936;2022-10-31T01:52:38;101282.47;;;17.05;100.00
9764;BME280;4921;43.214;27.936;2022-10-31T01:55:09;101285.13;;;17.05;100.00
9764;BME280;4921;43.214;27.936;2022-10-31T01:57:40;101283.84;;;17.09;100.00
9764;BME280;4921;43.214;27.936;2022-10-31T02:00:11;101285.38;;;17.12;100.00
9764;BME280;4921;43.214;27.936;2022-10-31T02:02:39;101278.94;;;17.14;100.00
9764;BME280;4921;43.214;27.936;2022-10-31T02:05:10;101281.59;;;17.14;100.00
9764;BME280;4921;43.214;27.936;2022-10-31T02:07:43;101280.44;;;17.17;100.00
9764;BME280;4921;43.214;27.936;2022-10-31T02:10:12;101284.78;;;17.18;100.00
9764;BME280;4921;43.214;27.936;2022-10-31T02:12:39;101283.78;;;17.19;100.00
9764;BME280;4921;43.214;27.936;2022-10-31T02:15:08;101286.31;;;17.20;100.00
9764;BME280;4921;43.214;27.936;2022-10-31T02:17:36;101293.16;;;17.23;100.00
9764;BME280;4921;43.214;27.936;2022-10-31T02:20:13;101293.16;;;17.23;100.00
9764;BME280;4921;43.214;27.936;2022-10-31T02:22:54;101289.66;;;17.22;100.00
9764;BME280;4921;43.214;27.936;2022-10-31T02:25:44;101278.03;;;17.23;100.00
9764;BME280;4921;43.214;27.936;2022-10-31T02:28:34;101281.69;;;17.22;100.00
9764;BME280;4921;43.214;27.936;2022-10-31T02:31:19;101284.63;;;17.19;100.00
9764;BME280;4921;43.214;27.936;2022-10-31T02:33:51;101291.91;;;17.17;100.00
9764;BME280;4921;43.214;27.936;2022-10-31T02:36:23;101294.56;;;17.17;100.00
9764;BME280;4921;43.214;27.936;2022-10-31T02:38:59;101301.72;;;17.17;100.00
9764;BME280;4921;43.214;27.936;2022-10-31T02:41:34;101303.00;;;17.13;100.00
9764;BME280;4921;43.214;27.936;2022-10-31T02:44:08;101315.22;;;17.06;100.00
9764;BME280;4921;43.214;27.936;2022-10-31T02:46:43;101311.41;;;17.08;100.00
9764;BME280;4921;43.214;27.936;2022-10-31T02:49:18;101313.94;;;17.10;100.00
9764;BME280;4921;43.214;27.936;2022-10-31T02:51:49;101308.47;;;17.11;100.00
9764;BME280;4921;43.214;27.936;2022-10-31T02:54:22;101298.25;;;17.07;100.00
9764;BME280;4921;43.214;27.936;2022-10-31T02:56:52;101305.13;;;17.09;100.00
9764;BME280;4921;43.214;27.936;2022-10-31T02:59:21;101308.22;;;17.05;100.00
9764;BME280;4921;43.214;27.936;2022-10-31T03:02:09;101297.97;;;17.10;100.00
9764;BME280;4921;43.214;27.936;2022-10-31T03:05:06;101299.34;;;17.14;100.00
9764;BME280;4921;43.214;27.936;2022-10-31T03:07:42;101308.31;;;17.13;100.00
9764;BME280;4921;43.214;27.936;2022-10-31T03:10:17;101306.78;;;17.10;100.00
9764;BME280;4921;43.214;27.936;2022-10-31T03:12:59;101305.97;;;17.10;100.00
9764;BME280;4921;43.214;27.936;2022-10-31T03:15:30;101310.59;;;17.08;100.00
9764;BME280;4921;43.214;27.936;2022-10-31T03:18:02;101308.91;;;17.07;100.00
9764;BME280;4921;43.214;27.936;2022-10-31T03:20:36;101308.06;;;17.06;100.00
9764;BME280;4921;43.214;27.936;2022-10-31T03:23:06;101310.59;;;17.08;100.00
9764;BME280;4921;43.214;27.936;2022-10-31T03:25:36;101312.94;;;17.11;100.00
9764;BME280;4921;43.214;27.936;2022-10-31T03:28:05;101314.63;;;17.12;100.00
9764;BME280;4921;43.214;27.936;2022-10-31T03:30:35;101310.97;;;17.13;100.00
9764;BME280;4921;43.214;27.936;2022-10-31T03:33:10;101322.84;;;17.18;100.00
9764;BME280;4921;43.214;27.936;2022-10-31T03:35:41;101325.06;;;17.23;100.00
9764;BME280;4921;43.214;27.936;2022-10-31T03:38:09;101319.59;;;17.24;100.00
9764;BME280;4921;43.214;27.936;2022-10-31T03:40:38;101326.44;;;17.27;100.00
9764;BME280;4921;43.214;27.936;2022-10-31T03:43:10;101328.09;;;17.28;100.00
9764;BME280;4921;43.214;27.936;2022-10-31T03:45:43;101336.22;;;17.26;100.00
9764;BME280;4921;43.214;27.936;2022-10-31T03:48:12;101337.59;;;17.30;100.00
9764;BME280;4921;43.214;27.936;2022-10-31T03:50:47;101339.81;;;17.35;100.00
9764;BME280;4921;43.214;27.936;2022-10-31T03:53:20;101346.84;;;17.36;100.00
9764;BME280;4921;43.214;27.936;2022-10-31T03:55:52;101344.44;;;17.33;100.00
9764;BME280;4921;43.214;27.936;2022-10-31T03:58:23;101347.13;;;17.33;100.00
9764;BME280;4921;43.214;27.936;2022-10-31T04:00:52;101357.91;;;17.31;100.00
9764;BME280;4921;43.214;27.936;2022-10-31T04:03:24;101353.28;;;17.33;100.00
9764;BME280;4921;43.214;27.936;2022-10-31T04:05:53;101354.25;;;17.32;100.00
9764;BME280;4921;43.214;27.936;2022-10-31T04:08:24;101358.59;;;17.33;100.00
9764;BME280;4921;43.214;27.936;2022-10-31T04:10:54;101357.91;;;17.31;100.00
9764;BME280;4921;43.214;27.936;2022-10-31T04:13:25;101358.59;;;17.33;100.00
9764;BME280;4921;43.214;27.936;2022-10-31T04:15:54;101353.13;;;17.35;100.00
9764;BME280;4921;43.214;27.936;2022-10-31T04:18:23;101351.16;;;17.37;100.00
9764;BME280;4921;43.214;27.936;2022-10-31T04:20:59;101363.47;;;17.38;100.00
9764;BME280;4921;43.214;27.936;2022-10-31T04:23:27;101360.81;;;17.38;100.00
9764;BME280;4921;43.214;27.936;2022-10-31T04:25:54;101361.63;;;17.38;100.00
9764;BME280;4921;43.214;27.936;2022-10-31T04:28:22;101362.63;;;17.37;100.00
9764;BME280;4921;43.214;27.936;2022-10-31T04:30:49;101370.44;;;17.39;100.00
9764;BME280;4921;43.214;27.936;2022-10-31T04:33:16;101373.78;;;17.41;100.00
9764;BME280;4921;43.214;27.936;2022-10-31T04:35:45;101383.59;;;17.40;100.00
9764;BME280;4921;43.214;27.936;2022-10-31T04:38:12;101379.28;;;17.39;100.00
9764;BME280;4921;43.214;27.936;2022-10-31T04:40:38;101381.78;;;17.41;100.00
9764;BME280;4921;43.214;27.936;2022-10-31T04:43:05;101389.06;;;17.39;100.00
9764;BME280;4921;43.214;27.936;2022-10-31T04:45:32;101397.34;;;17.36;100.00
9764;BME280;4921;43.214;27.936;2022-10-31T04:47:59;101398.59;;;17.32;100.00
9764;BME280;4921;43.214;27.936;2022-10-31T04:50:26;101402.94;;;17.33;100.00
9764;BME280;4921;43.214;27.936;2022-10-31T04:52:54;101404.75;;;17.32;100.00
9764;BME280;4921;43.214;27.936;2022-10-31T04:55:21;101411.78;;;17.33;100.00
9764;BME280;4921;43.214;27.936;2022-10-31T04:57:49;101415.41;;;17.32;100.00
9764;BME280;4921;43.214;27.936;2022-10-31T05:00:18;101422.59;;;17.22;100.00
9764;BME280;4921;43.214;27.936;2022-10-31T05:02:45;101439.97;;;17.07;100.00
9764;BME280;4921;43.214;27.936;2022-10-31T05:05:13;101437.31;;;17.07;100.00
9764;BME280;4921;43.214;27.936;2022-10-31T05:07:42;101440.50;;;17.20;100.00
9764;BME280;4921;43.214;27.936;2022-10-31T05:10:12;101445.38;;;17.25;100.00
9764;BME280;4921;43.214;27.936;2022-10-31T05:12:45;101451.41;;;17.27;100.00
9764;BME280;4921;43.214;27.936;2022-10-31T05:15:13;101447.03;;;17.26;100.00
9764;BME280;4921;43.214;27.936;2022-10-31T05:17:40;101442.41;;;17.28;100.00
9764;BME280;4921;43.214;27.936;2022-10-31T05:20:08;101447.75;;;17.28;100.00
9764;BME280;4921;43.214;27.936;2022-10-31T05:22:35;101462.56;;;17.30;100.00
9764;BME280;4921;43.214;27.936;2022-10-31T05:25:02;101454.75;;;17.29;100.00
9764;BME280;4921;43.214;27.936;2022-10-31T05:27:30;101463.69;;;17.28;100.00
9764;BME280;4921;43.214;27.936;2022-10-31T05:29:57;101466.91;;;17.31;100.00
9764;BME280;4921;43.214;27.936;2022-10-31T05:32:24;101464.38;;;17.30;100.00
9764;BME280;4921;43.214;27.936;2022-10-31T05:34:51;101472.25;;;17.31;100.00
9764;BME280;4921;43.214;27.936;2022-10-31T05:37:17;101468.88;;;17.29;100.00
9764;BME280;4921;43.214;27.936;2022-10-31T05:39:44;101469.44;;;17.33;100.00
9764;BME280;4921;43.214;27.936;2022-10-31T05:42:11;101469.91;;;17.56;100.00
9764;BME280;4921;43.214;27.936;2022-10-31T05:44:39;101486.13;;;17.72;100.00
9764;BME280;4921;43.214;27.936;2022-10-31T05:47:06;101479.91;;;17.81;100.00
9764;BME280;4921;43.214;27.936;2022-10-31T05:49:33;101487.50;;;17.76;100.00
9764;BME280;4921;43.214;27.936;2022-10-31T05:52:00;101490.84;;;17.78;100.00
9764;BME280;4921;43.214;27.936;2022-10-31T05:54:27;101505.84;;;17.79;100.00
9764;BME280;4921;43.214;27.936;2022-10-31T05:56:54;101503.72;;;17.82;100.00
9764;BME280;4921;43.214;27.936;2022-10-31T05:59:21;101499.91;;;17.85;100.00
9764;BME280;4921;43.214;27.936;2022-10-31T06:01:49;101496.94;;;17.88;100.00
9764;BME280;4921;43.214;27.936;2022-10-31T06:04:16;101507.16;;;17.92;100.00
9764;BME280;4921;43.214;27.936;2022-10-31T06:06:42;101506.88;;;17.95;100.00
9764;BME280;4921;43.214;27.936;2022-10-31T06:09:09;101495.94;;;17.98;100.00
9764;BME280;4921;43.214;27.936;2022-10-31T06:11:36;101497.31;;;18.02;100.00
9764;BME280;4921;43.214;27.936;2022-10-31T06:14:04;101498.53;;;18.08;100.00
9764;BME280;4921;43.214;27.936;2022-10-31T06:16:31;101504.38;;;18.11;100.00
9764;BME280;4921;43.214;27.936;2022-10-31T06:18:59;101496.78;;;18.16;100.00
9764;BME280;4921;43.214;27.936;2022-10-31T06:21:26;101505.19;;;18.21;100.00
9764;BME280;4921;43.214;27.936;2022-10-31T06:23:52;101500.22;;;18.26;100.00
9764;BME280;4921;43.214;27.936;2022-10-31T06:26:19;101505.09;;;18.31;100.00
9764;BME280;4921;43.214;27.936;2022-10-31T06:28:46;101508.16;;;18.36;100.00
9764;BME280;4921;43.214;27.936;2022-10-31T06:31:13;101504.22;;;18.40;100.00
9764;BME280;4921;43.214;27.936;2022-10-31T06:33:41;101504.63;;;18.45;100.00
9764;BME280;4921;43.214;27.936;2022-10-31T06:36:09;101513.03;;;18.50;100.00
9764;BME280;4921;43.214;27.936;2022-10-31T06:38:36;101507.38;;;18.53;100.00
9764;BME280;4921;43.214;27.936;2022-10-31T06:41:03;101515.06;;;18.56;100.00
9764;BME280;4921;43.214;27.936;2022-10-31T06:43:31;101518.28;;;18.60;100.00
9764;BME280;4921;43.214;27.936;2022-10-31T06:46:01;101521.31;;;18.65;100.00
9764;BME280;4921;43.214;27.936;2022-10-31T06:48:29;101531.81;;;18.66;100.00
9764;BME280;4921;43.214;27.936;2022-10-31T06:50:57;101537.00;;;18.68;100.00
9764;BME280;4921;43.214;27.936;2022-10-31T06:53:26;101532.06;;;18.73;100.00
9764;BME280;4921;43.214;27.936;2022-10-31T06:55:55;101531.75;;;18.76;100.00
9764;BME280;4921;43.214;27.936;2022-10-31T06:58:22;101531.31;;;18.80;100.00
9764;BME280;4921;43.214;27.936;2022-10-31T07:00:49;101535.34;;;18.84;100.00
9764;BME280;4921;43.214;27.936;2022-10-31T07:03:16;101537.56;;;18.89;100.00
9764;BME280;4921;43.214;27.936;2022-10-31T07:05:43;101540.72;;;18.92;100.00
9764;BME280;4921;43.214;27.936;2022-10-31T07:08:11;101534.09;;;18.96;100.00
9764;BME280;4921;43.214;27.936;2022-10-31T07:10:41;101527.63;;;18.99;100.00
9764;BME280;4921;43.214;27.936;2022-10-31T07:13:12;101535.00;;;19.05;100.00
9764;BME280;4921;43.214;27.936;2022-10-31T07:15:41;101540.03;;;19.08;100.00
9764;BME280;4921;43.214;27.936;2022-10-31T07:18:10;101531.59;;;19.13;100.00
9764;BME280;4921;43.214;27.936;2022-10-31T07:20:38;101536.59;;;19.16;100.00
9764;BME280;4921;43.214;27.936;2022-10-31T07:23:05;101531.63;;;19.21;100.00
9764;BME280;4921;43.214;27.936;2022-10-31T07:25:32;101531.47;;;19.22;100.00
9764;BME280;4921;43.214;27.936;2022-10-31T07:28:00;101533.69;;;19.27;100.00
9764;BME280;4921;43.214;27.936;2022-10-31T07:30:27;101538.03;;;19.28;100.00
9764;BME280;4921;43.214;27.936;2022-10-31T07:32:54;101535.19;;;19.29;100.00
9764;BME280;4921;43.214;27.936;2022-10-31T07:35:23;101536.72;;;19.32;100.00
9764;BME280;4921;43.214;27.936;2022-10-31T07:37:50;101533.88;;;19.33;100.00
9764;BME280;4921;43.214;27.936;2022-10-31T07:40:18;101534.31;;;19.38;100.00
9764;BME280;4921;43.214;27.936;2022-10-31T07:42:46;101534.81;;;19.42;100.00
9764;BME280;4921;43.214;27.936;2022-10-31T07:45:17;101534.34;;;19.46;100.00
9764;BME280;4921;43.214;27.936;2022-10-31T07:47:45;101540.06;;;19.51;100.00
9764;BME280;4921;43.214;27.936;2022-10-31T07:50:14;101544.75;;;19.57;100.00
9764;BME280;4921;43.214;27.936;2022-10-31T07:52:41;101543.28;;;19.63;100.00
9764;BME280;4921;43.214;27.936;2022-10-31T07:55:08;101543.81;;;19.66;100.00
9764;BME280;4921;43.214;27.936;2022-10-31T07:57:35;101543.50;;;19.69;100.00
9764;BME280;4921;43.214;27.936;2022-10-31T08:00:04;101541.34;;;19.73;100.00
9764;BME280;4921;43.214;27.936;2022-10-31T08:02:32;101546.56;;;19.83;100.00
9764;BME280;4921;43.214;27.936;2022-10-31T08:04:59;101543.25;;;19.89;100.00
9764;BME280;4921;43.214;27.936;2022-10-31T08:07:27;101543.44;;;19.95;100.00
9764;BME280;4921;43.214;27.936;2022-10-31T08:09:55;101552.50;;;20.02;100.00
9764;BME280;4921;43.214;27.936;2022-10-31T08:12:22;101551.00;;;20.08;100.00
9764;BME280;4921;43.214;27.936;2022-10-31T08:14:49;101551.91;;;20.16;100.00
9764;BME280;4921;43.214;27.936;2022-10-31T08:17:16;101546.09;;;20.21;100.00
9764;BME280;4921;43.214;27.936;2022-10-31T08:19:44;101548.16;;;20.27;100.00
9764;BME280;4921;43.214;27.936;2022-10-31T08:22:11;101549.31;;;20.32;100.00
9764;BME280;4921;43.214;27.936;2022-10-31T08:24:38;101553.34;;;20.36;100.00
9764;BME280;4921;43.214;27.936;2022-10-31T08:27:05;101553.88;;;20.40;100.00
9764;BME280;4921;43.214;27.936;2022-10-31T08:29:32;101553.53;;;20.43;100.00
9764;BME280;4921;43.214;27.936;2022-10-31T08:31:59;101544.19;;;20.47;100.00
9764;BME280;4921;43.214;27.936;2022-10-31T08:34:26;101545.38;;;20.52;100.00
9764;BME280;4921;43.214;27.936;2022-10-31T08:36:54;101538.88;;;20.55;100.00
9764;BME280;4921;43.214;27.936;2022-10-31T08:39:21;101539.88;;;20.62;100.00
9764;BME280;4921;43.214;27.936;2022-10-31T08:41:48;101542.88;;;20.67;100.00
9764;BME280;4921;43.214;27.936;2022-10-31T08:44:15;101558.75;;;20.69;100.00
9764;BME280;4921;43.214;27.936;2022-10-31T08:46:42;101554.75;;;20.65;100.00
9764;BME280;4921;43.214;27.936;2022-10-31T08:49:09;101552.72;;;20.50;100.00
9764;BME280;4921;43.214;27.936;2022-10-31T08:51:36;101553.03;;;20.47;100.00
9764;BME280;4921;43.214;27.936;2022-10-31T08:54:04;101553.22;;;20.62;100.00
9764;BME280;4921;43.214;27.936;2022-10-31T08:56:31;101552.91;;;20.73;100.00
9764;BME280;4921;43.214;27.936;2022-10-31T08:58:58;101559.78;;;20.84;100.00
9764;BME280;4921;43.214;27.936;2022-10-31T09:01:25;101558.78;;;20.93;100.00
9764;BME280;4921;43.214;27.936;2022-10-31T09:03:52;101556.97;;;21.01;100.00
9764;BME280;4921;43.214;27.936;2022-10-31T09:06:19;101550.97;;;21.07;100.00
9764;BME280;4921;43.214;27.936;2022-10-31T09:08:46;101555.50;;;21.15;100.00
9764;BME280;4921;43.214;27.936;2022-10-31T09:11:14;101551.31;;;21.20;100.00
9764;BME280;4921;43.214;27.936;2022-10-31T09:13:41;101554.00;;;21.04;100.00
9764;BME280;4921;43.214;27.936;2022-10-31T09:16:08;101552.13;;;21.05;100.00
9764;BME280;4921;43.214;27.936;2022-10-31T09:18:35;101548.97;;;21.17;100.00
9764;BME280;4921;43.214;27.936;2022-10-31T09:21:02;101546.28;;;21.34;100.00
9764;BME280;4921;43.214;27.936;2022-10-31T09:23:28;101547.28;;;21.16;100.00
9764;BME280;4921;43.214;27.936;2022-10-31T09:25:58;101543.44;;;21.27;100.00
9764;BME280;4921;43.214;27.936;2022-10-31T09:28:26;101541.56;;;21.44;100.00
9764;BME280;4921;43.214;27.936;2022-10-31T09:30:53;101542.38;;;21.52;100.00
9764;BME280;4921;43.214;27.936;2022-10-31T09:33:20;101538.41;;;21.56;100.00
9764;BME280;4921;43.214;27.936;2022-10-31T09:35:48;101540.19;;;21.64;100.00
9764;BME280;4921;43.214;27.936;2022-10-31T09:38:16;101534.00;;;21.71;100.00
9764;BME280;4921;43.214;27.936;2022-10-31T09:40:46;101536.47;;;21.81;100.00
9764;BME280;4921;43.214;27.936;2022-10-31T09:43:17;101530.13;;;21.90;100.00
9764;BME280;4921;43.214;27.936;2022-10-31T09:45:55;101535.63;;;21.96;100.00
9764;BME280;4921;43.214;27.936;2022-10-31T09:48:41;101524.38;;;22.01;100.00
9764;BME280;4921;43.214;27.936;2022-10-31T09:51:13;101518.13;;;22.09;100.00
9764;BME280;4921;43.214;27.936;2022-10-31T09:53:44;101524.47;;;22.16;100.00
9764;BME280;4921;43.214;27.936;2022-10-31T09:56:15;101522.97;;;22.21;100.00
9764;BME280;4921;43.214;27.936;2022-10-31T09:58:45;101521.19;;;22.06;100.00
9764;BME280;4921;43.214;27.936;2022-10-31T10:01:23;101525.13;;;22.18;100.00
9764;BME280;4921;43.214;27.936;2022-10-31T10:03:56;101520.94;;;22.23;100.00
9764;BME280;4921;43.214;27.936;2022-10-31T10:06:28;101517.03;;;22.26;100.00
9764;BME280;4921;43.214;27.936;2022-10-31T10:08:56;101517.88;;;22.26;100.00
9764;BME280;4921;43.214;27.936;2022-10-31T10:11:46;101512.47;;;22.34;100.00
9764;BME280;4921;43.214;27.936;2022-10-31T10:14:31;101511.88;;;22.24;100.00
9764;BME280;4921;43.214;27.936;2022-10-31T10:17:10;101509.13;;;22.32;100.00
9764;BME280;4921;43.214;27.936;2022-10-31T10:22:40;101506.84;;;21.90;100.00
9764;BME280;4921;43.214;27.936;2022-10-31T10:25:16;101507.53;;;21.76;100.00
9764;BME280;4921;43.214;27.936;2022-10-31T10:27:51;101508.88;;;21.72;100.00
9764;BME280;4921;43.214;27.936;2022-10-31T10:30:20;101506.59;;;21.53;100.00
9764;BME280;4921;43.214;27.936;2022-10-31T10:32:52;101516.66;;;21.35;100.00
9764;BME280;4921;43.214;27.936;2022-10-31T10:35:24;101518.88;;;21.23;100.00
9764;BME280;4921;43.214;27.936;2022-10-31T10:37:54;101517.19;;;21.22;100.00
9764;BME280;4921;43.214;27.936;2022-10-31T10:40:26;101509.50;;;21.19;100.00
9764;BME280;4921;43.214;27.936;2022-10-31T10:45:58;101506.47;;;20.90;100.00
9764;BME280;4921;43.214;27.936;2022-10-31T10:48:53;101505.47;;;20.75;100.00
9764;BME280;4921;43.214;27.936;2022-10-31T10:51:25;101508.81;;;20.69;100.00
9764;BME280;4921;43.214;27.936;2022-10-31T10:54:02;101502.47;;;20.70;100.00
9764;BME280;4921;43.214;27.936;2022-10-31T10:56:51;101496.28;;;20.70;100.00
9764;BME280;4921;43.214;27.936;2022-10-31T10:59:21;101497.97;;;20.79;100.00
9764;BME280;4921;43.214;27.936;2022-10-31T11:01:50;101496.28;;;20.86;100.00
9764;BME280;4921;43.214;27.936;2022-10-31T11:04:29;101490.94;;;20.70;100.00
9764;BME280;4921;43.214;27.936;2022-10-31T11:07:01;101499.13;;;20.84;100.00
9764;BME280;4921;43.214;27.936;2022-10-31T11:09:28;101497.97;;;20.79;100.00
9764;BME280;4921;43.214;27.936;2022-10-31T11:11:56;101492.44;;;20.72;100.00
9764;BME280;4921;43.214;27.936;2022-10-31T11:14:24;101498.13;;;20.61;100.00
9764;BME280;4921;43.214;27.936;2022-10-31T11:16:54;101481.41;;;20.67;100.00
9764;BME280;4921;43.214;27.936;2022-10-31T11:19:24;101488.94;;;20.72;100.00
9764;BME280;4921;43.214;27.936;2022-10-31T11:21:53;101492.63;;;20.79;100.00
9764;BME280;4921;43.214;27.936;2022-10-31T11:24:22;101496.28;;;20.62;100.00
9764;BME280;4921;43.214;27.936;2022-10-31T11:26:51;101487.75;;;20.74;100.00
9764;BME280;4921;43.214;27.936;2022-10-31T11:29:20;101485.94;;;20.83;100.00
9764;BME280;4921;43.214;27.936;2022-10-31T11:31:52;101487.59;;;20.84;100.00
9764;BME280;4921;43.214;27.936;2022-10-31T11:34:27;101478.91;;;20.82;100.00
9764;BME280;4921;43.214;27.936;2022-10-31T11:37:01;101495.28;;;20.79;100.00
9764;BME280;4921;43.214;27.936;2022-10-31T11:39:29;101493.94;;;20.67;100.00
9764;BME280;4921;43.214;27.936;2022-10-31T11:42:00;101496.78;;;20.57;100.00
9764;BME280;4921;43.214;27.936;2022-10-31T11:44:30;101488.25;;;20.62;100.00
9764;BME280;4921;43.214;27.936;2022-10-31T11:46:59;101488.41;;;20.44;100.00
9764;BME280;4921;43.214;27.936;2022-10-31T11:49:30;101490.19;;;20.27;100.00
9764;BME280;4921;43.214;27.936;2022-10-31T11:52:03;101481.72;;;20.48;100.00
9764;BME280;4921;43.214;27.936;2022-10-31T11:54:34;101478.06;;;20.73;100.00
9764;BME280;4921;43.214;27.936;2022-10-31T11:57:03;101476.38;;;20.88;100.00
9764;BME280;4921;43.214;27.936;2022-10-31T11:59:31;101466.19;;;21.00;100.00
9764;BME280;4921;43.214;27.936;2022-10-31T12:01:59;101472.22;;;20.86;100.00
9764;BME280;4921;43.214;27.936;2022-10-31T12:04:33;101472.72;;;20.57;100.00
9764;BME280;4921;43.214;27.936;2022-10-31T12:07:05;101474.72;;;20.79;100.00
9764;BME280;4921;43.214;27.936;2022-10-31T12:09:34;101474.56;;;20.89;100.00
9764;BME280;4921;43.214;27.936;2022-10-31T12:15:03;101469.53;;;21.02;100.00
9764;BME280;4921;43.214;27.936;2022-10-31T12:17:36;101467.72;;;21.10;100.00
9764;BME280;4921;43.214;27.936;2022-10-31T12:20:12;101458.81;;;21.18;100.00
9764;BME280;4921;43.214;27.936;2022-10-31T12:22:52;101456.00;;;21.19;100.00
9764;BME280;4921;43.214;27.936;2022-10-31T12:25:30;101456.81;;;21.28;100.00
9764;BME280;4921;43.214;27.936;2022-10-31T12:28:11;101460.66;;;21.34;100.00
9764;BME280;4921;43.214;27.936;2022-10-31T12:30:59;101458.44;;;21.45;100.00
9764;BME280;4921;43.214;27.936;2022-10-31T12:33:47;101463.44;;;21.56;100.00
9764;BME280;4921;43.214;27.936;2022-10-31T12:36:29;101462.25;;;21.51;100.00
9764;BME280;4921;43.214;27.936;2022-10-31T12:39:17;101464.31;;;21.41;100.00
9764;BME280;4921;43.214;27.936;2022-10-31T12:41:47;101468.94;;;21.55;100.00
9764;BME280;4921;43.214;27.936;2022-10-31T12:44:40;101465.06;;;21.65;100.00
9764;BME280;4921;43.214;27.936;2022-10-31T12:47:27;101462.56;;;21.64;100.00
9764;BME280;4921;43.214;27.936;2022-10-31T12:50:08;101474.16;;;21.48;100.00
9764;BME280;4921;43.214;27.936;2022-10-31T12:52:48;101472.88;;;21.28;100.00
9764;BME280;4921;43.214;27.936;2022-10-31T12:55:38;101474.06;;;21.17;100.00
9764;BME280;4921;43.214;27.936;2022-10-31T12:58:10;101480.09;;;21.19;100.00
9764;BME280;4921;43.214;27.936;2022-10-31T13:00:44;101474.41;;;21.14;100.00
9764;BME280;4921;43.214;27.936;2022-10-31T13:03:23;101479.25;;;21.19;100.00
9764;BME280;4921;43.214;27.936;2022-10-31T13:05:54;101473.41;;;21.07;100.00
9764;BME280;4921;43.214;27.936;2022-10-31T13:08:28;101473.56;;;21.14;100.00
9764;BME280;4921;43.214;27.936;2022-10-31T13:11:05;101469.50;;;21.34;100.00
9764;BME280;4921;43.214;27.936;2022-10-31T13:13:39;101464.66;;;21.46;100.00
9764;BME280;4921;43.214;27.936;2022-10-31T13:16:12;101467.31;;;21.46;100.00